Time;durP1;ratioP1;P1;durP2;ratioP2;P2;SDS_P1;SDS_P2;PMS_P1;PMS_P2;Temp;Humidity;BMP_temperature;BMP_pressure;BME280_temperature;BME280_humidity;BME280_pressure;Samples;Min_cycle;Max_cycle;Signal;HPM_P1;HPM_P2
2023/09/27 00:00:59;;;;;;;13.90;7.18;;;;;;;-141.50;100.00;63355.56;5025573;28;20049;-72
2023/09/27 00:03:26;;;;;;;19.33;8.02;;;;;;;-141.50;100.00;63355.56;5018848;28;20051;-72
2023/09/27 00:05:53;;;;;;;14.57;7.65;;;;;;;-141.50;100.00;63355.56;5026789;28;20065;-72
2023/09/27 00:08:20;;;;;;;13.77;6.60;;;;;;;-141.50;100.00;63355.56;5026276;28;20423;-71
2023/09/27 00:10:47;;;;;;;13.73;7.00;;;;;;;-141.50;100.00;63355.56;5041303;28;20045;-72
2023/09/27 00:13:14;;;;;;;16.27;7.43;;;;;;;-141.50;100.00;63355.56;5024882;28;20045;-72
2023/09/27 00:15:42;;;;;;;14.65;7.35;;;;;;;-141.50;100.00;63355.56;5022518;28;20046;-72
2023/09/27 00:18:10;;;;;;;14.13;7.47;;;;;;;-141.50;100.00;63355.56;5023349;28;20726;-71
2023/09/27 00:20:37;;;;;;;15.50;7.32;;;;;;;-141.50;100.00;63355.56;5025879;28;20064;-71
2023/09/27 00:23:05;;;;;;;12.30;7.15;;;;;;;-141.50;100.00;63355.56;5026101;28;20075;-72
2023/09/27 00:25:32;;;;;;;16.25;7.90;;;;;;;-141.50;100.00;63355.56;5018835;28;20037;-72
2023/09/27 00:27:59;;;;;;;17.10;8.15;;;;;;;-141.50;100.00;63355.56;5022045;28;20053;-71
2023/09/27 00:30:26;;;;;;;14.05;7.38;;;;;;;-141.50;100.00;63355.56;5033091;28;20037;-71
2023/09/27 00:32:53;;;;;;;20.98;8.00;;;;;;;-141.50;100.00;63355.56;5025084;28;20049;-72
2023/09/27 00:35:22;;;;;;;13.45;7.55;;;;;;;-141.50;100.00;63355.56;5026317;28;20045;-71
2023/09/27 00:37:50;;;;;;;15.38;7.60;;;;;;;-141.50;100.00;63355.56;5025336;28;20053;-72
2023/09/27 00:40:21;;;;;;;14.95;8.05;;;;;;;-141.50;100.00;63355.56;5024757;28;20061;-72
2023/09/27 00:42:48;;;;;;;16.50;7.72;;;;;;;-141.50;100.00;63355.56;5025278;28;20068;-72
2023/09/27 00:45:17;;;;;;;14.45;7.50;;;;;;;-141.50;100.00;63355.56;5025339;28;20056;-72
2023/09/27 00:47:46;;;;;;;14.98;7.20;;;;;;;-141.50;100.00;63355.56;5025064;28;21075;-71
2023/09/27 00:50:14;;;;;;;12.98;7.47;;;;;;;-141.50;100.00;63355.56;5022062;28;20179;-72
2023/09/27 00:52:43;;;;;;;17.17;7.28;;;;;;;-141.50;100.00;63355.56;5024633;28;20045;-74
2023/09/27 00:55:12;;;;;;;13.30;6.95;;;;;;;-141.50;100.00;63355.56;5024718;28;20045;-72
2023/09/27 00:57:40;;;;;;;15.27;7.70;;;;;;;-141.50;100.00;63355.56;5025265;28;20536;-72
2023/09/27 01:00:10;;;;;;;13.73;7.35;;;;;;;-141.50;100.00;63355.56;5024275;28;20053;-72
2023/09/27 01:02:39;;;;;;;16.25;7.75;;;;;;;-141.50;100.00;63355.56;5026129;28;20134;-72
2023/09/27 01:05:10;;;;;;;14.45;7.03;;;;;;;-141.50;100.00;63355.56;5024187;28;20037;-73
2023/09/27 01:07:39;;;;;;;13.25;6.75;;;;;;;-141.50;100.00;63355.56;5024997;28;20096;-72
2023/09/27 01:10:08;;;;;;;14.80;7.03;;;;;;;-141.50;100.00;63355.56;5024166;28;20803;-73
2023/09/27 01:12:38;;;;;;;16.83;7.47;;;;;;;-141.50;100.00;63355.56;5024703;28;20052;-73
2023/09/27 01:15:08;;;;;;;19.05;7.70;;;;;;;-141.50;100.00;63355.56;5024585;28;20049;-72
2023/09/27 01:17:35;;;;;;;13.98;7.25;;;;;;;-141.50;100.00;63355.56;5025925;28;20053;-73
2023/09/27 01:20:04;;;;;;;16.30;7.20;;;;;;;-141.50;100.00;63355.56;5023943;28;20107;-72
2023/09/27 01:22:31;;;;;;;19.02;7.43;;;;;;;-141.50;100.00;63355.56;5032860;28;20034;-72
2023/09/27 01:25:00;;;;;;;13.57;7.10;;;;;;;-141.50;100.00;63355.56;5021553;28;20053;-72
2023/09/27 01:27:27;;;;;;;16.02;7.45;;;;;;;-141.50;100.00;63355.56;5033022;28;20042;-72
2023/09/27 01:29:54;;;;;;;13.75;7.38;;;;;;;-141.50;100.00;63355.56;5025743;28;20049;-71
2023/09/27 01:32:20;;;;;;;12.75;6.78;;;;;;;-141.50;100.00;63355.56;5026320;28;20123;-71
2023/09/27 01:34:47;;;;;;;13.90;7.28;;;;;;;-141.50;100.00;63355.56;5027736;28;20582;-73
2023/09/27 01:37:14;;;;;;;14.35;7.10;;;;;;;-141.50;100.00;63355.56;5027712;28;20045;-72
2023/09/27 01:39:41;;;;;;;15.35;7.70;;;;;;;-141.50;100.00;63355.56;5011642;28;20049;-71
2023/09/27 01:42:10;;;;;;;15.95;7.43;;;;;;;-141.50;100.00;63355.56;5010974;28;20072;-72
2023/09/27 01:44:38;;;;;;;11.85;7.20;;;;;;;-141.50;100.00;63355.56;5027661;28;20041;-72
2023/09/27 01:47:05;;;;;;;12.85;6.60;;;;;;;-141.50;100.00;63355.56;5027381;28;20045;-72
2023/09/27 01:49:32;;;;;;;15.52;7.88;;;;;;;-141.50;100.00;63355.56;5019397;28;20507;-72
2023/09/27 01:51:59;;;;;;;20.73;7.28;;;;;;;-141.50;100.00;63355.56;5027123;28;20033;-72
2023/09/27 01:54:25;;;;;;;17.90;8.23;;;;;;;-141.50;100.00;63355.56;5026851;28;20049;-72
2023/09/27 01:56:52;;;;;;;15.15;7.60;;;;;;;-141.50;100.00;63355.56;5028168;28;20042;-72
2023/09/27 01:59:19;;;;;;;17.63;7.43;;;;;;;-141.50;100.00;63355.56;5026313;28;20050;-72
2023/09/27 02:01:51;;;;;;;14.10;7.43;;;;;;;-141.50;100.00;63355.56;5026361;28;20046;-71
2023/09/27 02:04:18;;;;;;;14.57;8.00;;;;;;;-141.50;100.00;63355.56;5028034;28;20049;-74
2023/09/27 02:06:47;;;;;;;14.05;7.22;;;;;;;-141.50;100.00;63355.56;5027250;28;20108;-73
2023/09/27 02:09:14;;;;;;;17.90;7.90;;;;;;;-141.50;100.00;63355.56;5029718;28;20112;-71
2023/09/27 02:11:43;;;;;;;13.32;7.72;;;;;;;-141.50;100.00;63355.56;5028746;28;20472;-72
2023/09/27 02:14:10;;;;;;;15.98;7.65;;;;;;;-141.50;100.00;63355.56;5027209;28;20128;-73
2023/09/27 02:16:39;;;;;;;17.40;7.90;;;;;;;-141.50;100.00;63355.56;5028886;28;20041;-73
2023/09/27 02:19:06;;;;;;;15.13;7.22;;;;;;;-141.50;100.00;63355.56;5010624;28;20037;-73
2023/09/27 02:21:33;;;;;;;14.57;7.22;;;;;;;-141.50;100.00;63355.56;5026437;28;20521;-73
2023/09/27 02:24:00;;;;;;;16.83;8.25;;;;;;;-141.50;100.00;63355.56;5019554;28;20053;-72
2023/09/27 02:26:27;;;;;;;13.88;7.82;;;;;;;-141.50;100.00;63355.56;5027030;28;20045;-72
2023/09/27 02:28:54;;;;;;;16.13;7.50;;;;;;;-141.50;100.00;63355.56;5028316;28;20083;-72
2023/09/27 02:31:22;;;;;;;17.55;8.10;;;;;;;-141.50;100.00;63355.56;5026643;28;20042;-72
2023/09/27 02:33:48;;;;;;;14.43;8.02;;;;;;;-141.50;100.00;63355.56;5026146;28;20050;-72
2023/09/27 02:36:15;;;;;;;14.43;7.43;;;;;;;-141.50;100.00;63355.56;5027141;28;20514;-73
2023/09/27 02:38:45;;;;;;;14.52;7.65;;;;;;;-141.50;100.00;63355.56;5027043;28;20041;-73
2023/09/27 02:41:12;;;;;;;17.13;7.80;;;;;;;-141.50;100.00;63355.56;5018394;28;20045;-72
2023/09/27 02:43:40;;;;;;;13.07;7.25;;;;;;;-141.50;100.00;63355.56;5033403;28;20045;-72
2023/09/27 02:46:07;;;;;;;15.63;7.50;;;;;;;-141.50;100.00;63355.56;5026020;28;20037;-72
2023/09/27 02:48:37;;;;;;;15.30;7.80;;;;;;;-141.50;100.00;63355.56;5026721;28;20052;-72
2023/09/27 02:51:05;;;;;;;15.60;7.70;;;;;;;-141.50;100.00;63355.56;5026234;28;20049;-73
2023/09/27 02:53:31;;;;;;;17.33;8.40;;;;;;;-141.50;100.00;63355.56;5018460;28;20053;-73
2023/09/27 02:55:58;;;;;;;16.45;8.32;;;;;;;-141.50;100.00;63355.56;5022838;28;20042;-72
2023/09/27 02:58:25;;;;;;;14.50;7.80;;;;;;;-141.50;100.00;63355.56;5009944;28;20053;-72
2023/09/27 03:00:52;;;;;;;14.82;8.00;;;;;;;-141.50;100.00;63355.56;5026730;28;20053;-71
2023/09/27 03:03:19;;;;;;;15.32;8.15;;;;;;;-141.50;100.00;63355.56;5027678;28;20041;-72
2023/09/27 03:05:46;;;;;;;15.85;8.25;;;;;;;-141.50;100.00;63355.56;5010765;28;20045;-72
2023/09/27 03:08:14;;;;;;;17.90;7.78;;;;;;;-141.50;100.00;63355.56;5027298;28;20531;-72
2023/09/27 03:10:41;;;;;;;15.95;8.07;;;;;;;-141.50;100.00;63355.56;5026512;28;20534;-72
2023/09/27 03:13:09;;;;;;;15.00;8.05;;;;;;;-141.50;100.00;63355.56;5026390;28;20042;-71
2023/09/27 03:15:36;;;;;;;17.05;8.18;;;;;;;-141.50;100.00;63355.56;5025971;28;20053;-72
2023/09/27 03:18:03;;;;;;;18.63;8.68;;;;;;;-141.50;100.00;63355.56;5027591;28;20137;-72
2023/09/27 03:20:31;;;;;;;14.38;7.60;;;;;;;-141.50;100.00;63355.56;5018275;28;20049;-72
2023/09/27 03:22:59;;;;;;;15.52;7.53;;;;;;;-141.50;100.00;63355.56;5025232;28;20064;-72
2023/09/27 03:25:29;;;;;;;16.17;8.63;;;;;;;-141.50;100.00;63355.56;5026091;28;20427;-72
2023/09/27 03:27:55;;;;;;;16.40;8.13;;;;;;;-141.50;100.00;63355.56;5025747;28;20095;-72
2023/09/27 03:30:22;;;;;;;16.02;7.68;;;;;;;-141.50;100.00;63355.56;5023721;28;20121;-72
2023/09/27 03:32:49;;;;;;;17.38;9.02;;;;;;;-141.50;100.00;63355.56;5019831;28;20068;-71
2023/09/27 03:35:18;;;;;;;16.48;8.40;;;;;;;-141.50;100.00;63355.56;5018045;28;20145;-72
2023/09/27 03:37:45;;;;;;;15.63;8.20;;;;;;;-141.50;100.00;63355.56;5022121;28;20041;-72
2023/09/27 03:40:15;;;;;;;14.77;7.55;;;;;;;-141.50;100.00;63355.56;5025713;28;20103;-72
2023/09/27 03:42:44;;;;;;;14.32;8.07;;;;;;;-141.50;100.00;63355.56;5024905;28;20038;-72
2023/09/27 03:45:14;;;;;;;17.83;8.10;;;;;;;-141.50;100.00;63355.56;5008209;28;20053;-72
2023/09/27 03:47:44;;;;;;;14.90;8.68;;;;;;;-141.50;100.00;63355.56;5026295;28;20056;-72
2023/09/27 03:50:14;;;;;;;18.00;8.45;;;;;;;-141.50;100.00;63355.56;5028269;28;20065;-72
2023/09/27 03:52:42;;;;;;;13.02;7.60;;;;;;;-141.50;100.00;63355.56;5028838;28;20550;-72
2023/09/27 03:55:10;;;;;;;19.25;8.43;;;;;;;-141.50;100.00;63355.56;5026429;28;20046;-73
2023/09/27 03:57:37;;;;;;;17.17;8.23;;;;;;;-141.50;100.00;63355.56;5026892;28;20046;-72
2023/09/27 04:00:16;;;;;;;14.95;8.20;;;;;;;-141.50;100.00;63355.56;5032554;28;20041;-72
2023/09/27 04:02:46;;;;;;;17.20;7.75;;;;;;;-141.50;100.00;63355.56;5017866;28;20045;-72
2023/09/27 04:05:15;;;;;;;12.70;6.97;;;;;;;-141.50;100.00;63355.56;5024206;28;20049;-72
2023/09/27 04:07:42;;;;;;;17.00;8.43;;;;;;;-141.50;100.00;63355.56;5025084;28;20138;-72
2023/09/27 04:10:09;;;;;;;14.55;7.38;;;;;;;-141.50;100.00;63355.56;5024019;28;20415;-72
2023/09/27 04:12:36;;;;;;;14.73;7.65;;;;;;;-141.50;100.00;63355.56;5021404;28;20046;-72
2023/09/27 04:15:08;;;;;;;15.55;7.43;;;;;;;-141.50;100.00;63355.56;5022412;28;20438;-72
2023/09/27 04:17:35;;;;;;;15.05;7.88;;;;;;;-141.50;100.00;63355.56;5018318;28;21552;-73
2023/09/27 04:20:16;;;;;;;16.63;7.78;;;;;;;-141.50;100.00;63355.56;5025609;28;20042;-73
2023/09/27 04:22:44;;;;;;;18.30;8.32;;;;;;;-141.50;100.00;63355.56;5025015;28;21142;-73
2023/09/27 04:25:15;;;;;;;14.40;8.02;;;;;;;-141.50;100.00;63355.56;5026697;28;20095;-73
2023/09/27 04:27:45;;;;;;;17.38;8.35;;;;;;;-141.50;100.00;63355.56;5029404;28;20072;-73
2023/09/27 04:30:14;;;;;;;15.93;8.30;;;;;;;-141.50;100.00;63355.56;5026757;28;20080;-72
2023/09/27 04:32:45;;;;;;;18.88;8.32;;;;;;;-141.50;100.00;63355.56;5026167;28;20045;-73
2023/09/27 04:35:13;;;;;;;14.07;7.60;;;;;;;-141.50;100.00;63355.56;5025570;28;20056;-73
2023/09/27 04:37:40;;;;;;;20.50;9.43;;;;;;;-141.50;100.00;63355.56;5026386;28;20048;-73
2023/09/27 04:40:11;;;;;;;18.48;8.60;;;;;;;-141.50;100.00;63355.56;5023863;28;20486;-73
2023/09/27 04:42:39;;;;;;;17.08;8.55;;;;;;;-141.50;100.00;63355.56;5025473;28;21665;-72
2023/09/27 04:45:06;;;;;;;17.58;8.70;;;;;;;-141.50;100.00;63355.56;5025075;28;20129;-72
2023/09/27 04:47:33;;;;;;;16.83;8.00;;;;;;;-141.50;100.00;63355.56;5025884;28;20045;-76
2023/09/27 04:50:00;;;;;;;17.50;8.45;;;;;;;-141.50;100.00;63355.56;5025370;28;20045;-75
2023/09/27 04:52:27;;;;;;;16.60;7.97;;;;;;;-141.50;100.00;63355.56;5023748;28;20041;-77
2023/09/27 04:54:56;;;;;;;21.33;8.65;;;;;;;-141.50;100.00;63355.56;5021358;28;20046;-73
2023/09/27 04:57:24;;;;;;;16.70;8.63;;;;;;;-141.50;100.00;63355.56;5019969;28;20091;-74
2023/09/27 04:59:52;;;;;;;17.75;8.32;;;;;;;-141.50;100.00;63355.56;5020895;28;20045;-73
2023/09/27 05:02:21;;;;;;;17.88;8.23;;;;;;;-141.50;100.00;63355.56;5021432;28;20053;-73
2023/09/27 05:04:48;;;;;;;17.27;8.27;;;;;;;-141.50;100.00;63355.56;5020668;28;20129;-73
2023/09/27 05:07:16;;;;;;;15.82;8.23;;;;;;;-141.50;100.00;63355.56;5029073;28;20050;-74
2023/09/27 05:09:43;;;;;;;19.52;8.02;;;;;;;-141.50;100.00;63355.56;5025078;28;20550;-74
2023/09/27 05:12:12;;;;;;;14.23;7.80;;;;;;;-141.50;100.00;63355.56;5027685;28;20650;-73
2023/09/27 05:14:39;;;;;;;14.38;7.68;;;;;;;-141.50;100.00;63355.56;5024204;28;20042;-73
2023/09/27 05:17:06;;;;;;;15.45;7.82;;;;;;;-141.50;100.00;63355.56;5028593;28;20045;-73
2023/09/27 05:19:33;;;;;;;15.15;7.88;;;;;;;-141.50;100.00;63355.56;5028404;28;20476;-74
2023/09/27 05:22:00;;;;;;;14.15;7.50;;;;;;;-141.50;100.00;63355.56;5027037;28;20045;-74
2023/09/27 05:24:27;;;;;;;14.18;7.55;;;;;;;-141.50;100.00;63355.56;5028302;28;20050;-74
2023/09/27 05:26:57;;;;;;;17.92;8.40;;;;;;;-141.50;100.00;63355.56;5029085;28;20069;-74
2023/09/27 05:29:24;;;;;;;16.55;7.95;;;;;;;-141.50;100.00;63355.56;5028887;28;20053;-75
2023/09/27 05:31:51;;;;;;;17.48;8.27;;;;;;;-141.50;100.00;63355.56;5023699;28;20052;-75
2023/09/27 05:34:18;;;;;;;16.15;8.07;;;;;;;-141.50;100.00;63355.56;5027143;28;20049;-75
2023/09/27 05:36:46;;;;;;;18.42;7.88;;;;;;;-141.50;100.00;63355.56;5029668;28;20041;-75
2023/09/27 05:39:13;;;;;;;16.38;8.05;;;;;;;-141.50;100.00;63355.56;5024815;28;20046;-75
2023/09/27 05:41:39;;;;;;;25.95;8.63;;;;;;;-141.50;100.00;63355.56;5023391;28;20046;-75
2023/09/27 05:44:06;;;;;;;16.95;7.78;;;;;;;-141.50;100.00;63355.56;5024060;28;20037;-75
2023/09/27 05:46:33;;;;;;;16.63;7.72;;;;;;;-141.50;100.00;63355.56;5028545;28;20064;-75
2023/09/27 05:49:04;;;;;;;16.92;7.50;;;;;;;-141.50;100.00;63355.56;5024612;28;20052;-76
2023/09/27 05:51:31;;;;;;;16.70;7.82;;;;;;;-141.50;100.00;63355.56;5019397;28;20470;-76
2023/09/27 05:53:58;;;;;;;17.95;8.07;;;;;;;-141.50;100.00;63355.56;5026651;28;20805;-76
2023/09/27 05:56:25;;;;;;;14.75;8.32;;;;;;;-141.50;100.00;63355.56;5026741;28;20121;-76
2023/09/27 05:58:52;;;;;;;13.68;7.72;;;;;;;-141.50;100.00;63355.56;5025761;28;20080;-75
2023/09/27 06:01:20;;;;;;;18.00;7.97;;;;;;;-141.50;100.00;63355.56;5026695;28;20500;-75
2023/09/27 06:03:47;;;;;;;17.13;7.82;;;;;;;-141.50;100.00;63355.56;5028688;28;20229;-75
2023/09/27 06:06:14;;;;;;;21.00;8.25;;;;;;;-141.50;100.00;63355.56;5026524;28;20539;-76
2023/09/27 06:08:41;;;;;;;17.17;8.52;;;;;;;-141.50;100.00;63355.56;5028024;28;20643;-76
2023/09/27 06:11:09;;;;;;;18.33;8.93;;;;;;;-141.50;100.00;63355.56;5027600;28;20053;-76
2023/09/27 06:13:36;;;;;;;17.00;7.97;;;;;;;-141.50;100.00;63355.56;5026109;28;20128;-74
2023/09/27 06:16:17;;;;;;;18.95;9.10;;;;;;;-141.50;100.00;63355.56;5027402;28;20041;-75
2023/09/27 06:18:45;;;;;;;15.15;7.90;;;;;;;-141.50;100.00;63355.56;5035771;28;20439;-75
2023/09/27 06:21:12;;;;;;;16.63;9.20;;;;;;;-141.50;100.00;63355.56;5025459;28;20046;-76
2023/09/27 06:23:39;;;;;;;20.83;10.32;;;;;;;-141.50;100.00;63355.56;5025290;28;20531;-75
2023/09/27 06:26:07;;;;;;;20.75;11.07;;;;;;;-141.50;100.00;63355.56;5026505;28;20140;-75
2023/09/27 06:28:37;;;;;;;23.83;11.35;;;;;;;-141.50;100.00;63355.56;5008789;28;20388;-76
2023/09/27 06:31:07;;;;;;;26.35;11.95;;;;;;;-141.50;100.00;63355.56;5022542;28;20096;-76
2023/09/27 06:33:39;;;;;;;24.58;12.02;;;;;;;-141.50;100.00;63355.56;5017227;28;20136;-75
2023/09/27 06:36:10;;;;;;;26.02;12.60;;;;;;;-141.50;100.00;63355.56;5024270;28;20634;-76
2023/09/27 06:38:37;;;;;;;22.30;11.65;;;;;;;-141.50;100.00;63355.56;5019507;28;20042;-75
2023/09/27 06:41:03;;;;;;;28.48;12.63;;;;;;;-141.50;100.00;63355.56;5022965;28;20053;-76
2023/09/27 06:43:31;;;;;;;27.15;12.50;;;;;;;-141.50;100.00;63355.56;5025841;28;20068;-76
2023/09/27 06:46:01;;;;;;;24.20;13.23;;;;;;;-141.50;100.00;63355.56;5022867;28;20115;-76
2023/09/27 06:48:28;;;;;;;31.08;13.63;;;;;;;-141.50;100.00;63355.56;5029515;28;20041;-75
2023/09/27 06:50:56;;;;;;;26.20;12.73;;;;;;;-141.50;100.00;63355.56;5029708;28;20095;-75
2023/09/27 06:53:22;;;;;;;24.48;13.23;;;;;;;-141.50;100.00;63355.56;5029066;28;20061;-74
2023/09/27 06:55:55;;;;;;;26.52;12.73;;;;;;;-141.50;100.00;63355.56;5017862;28;20987;-74
2023/09/27 06:58:23;;;;;;;29.58;13.80;;;;;;;-141.50;100.00;63355.56;5024238;28;20443;-75
2023/09/27 07:00:52;;;;;;;28.33;13.80;;;;;;;-141.50;100.00;63355.56;5026764;28;21530;-75
2023/09/27 07:03:24;;;;;;;32.42;13.93;;;;;;;-141.50;100.00;63355.56;5026174;28;20042;-75
2023/09/27 07:05:52;;;;;;;28.65;13.52;;;;;;;-141.50;100.00;63355.56;5026797;28;21564;-75
2023/09/27 07:08:20;;;;;;;35.78;13.88;;;;;;;-141.50;100.00;63355.56;5026877;28;20512;-76
2023/09/27 07:10:47;;;;;;;25.00;12.95;;;;;;;-141.50;100.00;63355.56;5025572;28;20133;-76
2023/09/27 07:13:14;;;;;;;27.67;12.65;;;;;;;-141.50;100.00;63355.56;5025186;28;20069;-75
2023/09/27 07:15:45;;;;;;;23.73;12.52;;;;;;;-141.50;100.00;63355.56;5025260;28;20045;-76
2023/09/27 07:18:13;;;;;;;22.83;12.18;;;;;;;-141.50;100.00;63355.56;5026461;28;20076;-75
2023/09/27 07:20:41;;;;;;;25.83;13.30;;;;;;;-141.50;100.00;63355.56;5026727;28;20530;-75
2023/09/27 07:23:14;;;;;;;25.17;12.65;;;;;;;-141.50;100.00;63355.56;5025322;28;20041;-75
2023/09/27 07:25:44;;;;;;;25.95;12.25;;;;;;;-141.50;100.00;63355.56;5025860;28;20285;-76
2023/09/27 07:28:11;;;;;;;23.55;11.23;;;;;;;-141.50;100.00;63355.56;5026849;28;20076;-73
2023/09/27 07:30:38;;;;;;;22.33;11.10;;;;;;;-141.50;100.00;63355.56;5027683;28;20045;-74
2023/09/27 07:33:11;;;;;;;21.45;11.70;;;;;;;-141.50;100.00;63355.56;5023349;28;20053;-74
2023/09/27 07:35:43;;;;;;;20.55;11.40;;;;;;;-141.50;100.00;63355.56;5019863;28;20041;-75
2023/09/27 07:38:13;;;;;;;22.40;10.65;;;;;;;-141.50;100.00;63355.56;5024823;28;20042;-75
2023/09/27 07:40:46;;;;;;;18.08;9.90;;;;;;;-141.50;100.00;63355.56;5026374;28;20049;-75
2023/09/27 07:43:14;;;;;;;18.20;10.38;;;;;;;-141.50;100.00;63355.56;5026194;28;20558;-75
2023/09/27 07:45:43;;;;;;;23.25;10.57;;;;;;;-141.50;100.00;63355.56;5021759;28;20046;-74
2023/09/27 07:48:10;;;;;;;18.42;9.27;;;;;;;-141.50;100.00;63355.56;5038110;28;20440;-79
2023/09/27 07:50:38;;;;;;;18.33;8.90;;;;;;;-141.50;100.00;63355.56;5030025;28;20057;-78
2023/09/27 07:53:08;;;;;;;16.17;8.38;;;;;;;-141.50;100.00;63355.56;5032628;28;20107;-75
2023/09/27 07:55:48;;;;;;;15.68;8.00;;;;;;;-141.50;100.00;63355.56;5028762;28;20526;-76
2023/09/27 07:58:16;;;;;;;14.38;6.68;;;;;;;-141.50;100.00;63355.56;5026636;28;20052;-75
2023/09/27 08:00:43;;;;;;;11.70;6.70;;;;;;;-141.50;100.00;63355.56;5022557;28;20061;-75
2023/09/27 08:03:11;;;;;;;11.50;6.32;;;;;;;-141.50;100.00;63355.56;5023821;28;20405;-75
2023/09/27 08:05:45;;;;;;;13.88;7.20;;;;;;;-141.50;100.00;63355.56;5025491;28;20063;-75
2023/09/27 08:08:13;;;;;;;13.38;6.68;;;;;;;-141.50;100.00;63355.56;5025348;28;20128;-75
2023/09/27 08:10:43;;;;;;;13.38;7.05;;;;;;;-141.50;100.00;63355.56;5024961;28;20051;-74
2023/09/27 08:13:14;;;;;;;13.43;6.38;;;;;;;-141.50;100.00;63355.56;5006169;28;20053;-75
2023/09/27 08:15:42;;;;;;;10.85;6.40;;;;;;;-141.50;100.00;63355.56;5021880;28;20087;-75
2023/09/27 08:18:09;;;;;;;14.50;6.80;;;;;;;-141.50;100.00;63355.56;5016305;28;20041;-75
2023/09/27 08:20:36;;;;;;;16.20;7.50;;;;;;;-141.50;100.00;63355.56;5018850;28;20049;-75
2023/09/27 08:23:03;;;;;;;13.45;7.22;;;;;;;-141.50;100.00;63355.56;5016929;28;20324;-75
2023/09/27 08:25:32;;;;;;;15.88;7.35;;;;;;;-141.50;100.00;63355.56;5025412;28;20428;-76
2023/09/27 08:28:01;;;;;;;12.30;7.07;;;;;;;-141.50;100.00;63355.56;5024509;28;20037;-76
2023/09/27 08:30:28;;;;;;;11.88;6.45;;;;;;;-141.50;100.00;63355.56;5025664;28;20052;-76
2023/09/27 08:32:55;;;;;;;12.57;5.90;;;;;;;-141.50;100.00;63355.56;5025933;28;20139;-76
2023/09/27 08:35:22;;;;;;;13.95;6.22;;;;;;;-141.50;100.00;63355.56;5025614;28;20138;-76
2023/09/27 08:37:49;;;;;;;11.02;6.43;;;;;;;-141.50;100.00;63355.56;5026018;28;20092;-75
2023/09/27 08:40:16;;;;;;;11.13;6.22;;;;;;;-141.50;100.00;63355.56;5024537;28;20073;-76
2023/09/27 08:42:43;;;;;;;12.85;6.55;;;;;;;-141.50;100.00;63355.56;5028919;28;20542;-76
2023/09/27 08:45:14;;;;;;;12.07;7.20;;;;;;;-141.50;100.00;63355.56;5027495;28;20507;-76
2023/09/27 08:47:44;;;;;;;10.27;6.13;;;;;;;-141.50;100.00;63355.56;5024569;28;20465;-76
2023/09/27 08:50:17;;;;;;;12.40;6.28;;;;;;;-141.50;100.00;63355.56;5024050;28;20057;-76
2023/09/27 08:52:46;;;;;;;12.15;6.45;;;;;;;-141.50;100.00;63355.56;5029394;28;20042;-76
2023/09/27 08:55:15;;;;;;;12.18;6.38;;;;;;;-141.50;100.00;63355.56;5025753;28;20052;-76
2023/09/27 08:57:46;;;;;;;13.18;6.63;;;;;;;-141.50;100.00;63355.56;5027870;28;20103;-75
2023/09/27 09:00:15;;;;;;;9.48;6.07;;;;;;;-141.50;100.00;63355.56;5028492;28;20080;-75
2023/09/27 09:02:46;;;;;;;11.07;6.03;;;;;;;-141.50;100.00;63355.56;5029390;28;20041;-75
2023/09/27 09:05:13;;;;;;;12.10;6.20;;;;;;;-141.50;100.00;63355.56;5029080;28;20136;-76
2023/09/27 09:07:41;;;;;;;15.55;6.28;;;;;;;-141.50;100.00;63355.56;5031515;28;20037;-76
2023/09/27 09:10:13;;;;;;;10.15;6.25;;;;;;;-141.50;100.00;63355.56;5029830;28;20049;-76
2023/09/27 09:12:42;;;;;;;11.40;6.18;;;;;;;-141.50;100.00;63355.56;5029522;28;20052;-76
2023/09/27 09:15:28;;;;;;;10.32;6.07;;;;;;;-141.50;100.00;63355.56;5029407;28;20053;-77
2023/09/27 09:17:57;;;;;;;9.55;6.05;;;;;;;-141.50;100.00;63355.56;5027785;28;20049;-76
2023/09/27 09:20:48;;;;;;;10.88;6.22;;;;;;;-141.50;100.00;63355.56;5028758;28;20052;-77
2023/09/27 09:23:28;;;;;;;12.35;6.20;;;;;;;-141.50;100.00;63355.56;4993484;28;20515;-76
2023/09/27 09:25:56;;;;;;;10.27;6.00;;;;;;;-141.50;100.00;63355.56;5029504;28;20176;-77
2023/09/27 09:28:24;;;;;;;11.73;6.10;;;;;;;-141.50;100.00;63355.56;5027946;28;20056;-76
2023/09/27 09:30:52;;;;;;;10.50;5.35;;;;;;;-141.50;100.00;63355.56;5029229;28;20049;-76
2023/09/27 09:33:24;;;;;;;11.00;6.20;;;;;;;-141.50;100.00;63355.56;5027657;28;20072;-77
2023/09/27 09:35:52;;;;;;;11.07;6.15;;;;;;;-141.50;100.00;63355.56;5028297;28;20124;-76
2023/09/27 09:38:29;;;;;;;9.10;5.90;;;;;;;-141.50;100.00;63355.56;5026552;28;20135;-76
2023/09/27 09:40:58;;;;;;;9.63;5.35;;;;;;;-141.50;100.00;63355.56;5038656;28;20127;-76
2023/09/27 09:43:33;;;;;;;10.25;5.72;;;;;;;-141.50;100.00;63355.56;5024835;28;20523;-76
2023/09/27 09:46:06;;;;;;;9.75;4.93;;;;;;;-141.50;100.00;63355.56;5028133;28;20095;-75
2023/09/27 09:48:35;;;;;;;7.72;5.22;;;;;;;-141.50;100.00;63355.56;5018234;28;20096;-76
2023/09/27 09:51:06;;;;;;;10.00;5.63;;;;;;;-141.50;100.00;63355.56;5027608;28;20045;-75
2023/09/27 09:53:38;;;;;;;7.95;4.68;;;;;;;-141.50;100.00;63355.56;5027712;28;21059;-75
2023/09/27 09:56:07;;;;;;;8.95;4.95;;;;;;;-141.50;100.00;63355.56;5026521;28;20068;-75
2023/09/27 09:59:07;;;;;;;8.07;5.03;;;;;;;-141.50;100.00;63355.56;5026204;28;20195;-76
2023/09/27 10:01:39;;;;;;;8.77;5.00;;;;;;;-141.50;100.00;63355.56;5035517;28;20065;-75
2023/09/27 10:04:07;;;;;;;11.00;4.80;;;;;;;-141.50;100.00;63355.56;5026139;28;20055;-76
2023/09/27 10:06:36;;;;;;;6.75;3.80;;;;;;;-141.50;100.00;63355.56;5026831;28;22221;-76
2023/09/27 10:09:15;;;;;;;7.78;4.32;;;;;;;-141.50;100.00;63355.56;5028419;28;20154;-79
2023/09/27 10:11:44;;;;;;;9.88;4.55;;;;;;;-141.50;100.00;63355.56;5029546;28;20049;-81
2023/09/27 10:14:15;;;;;;;7.30;4.25;;;;;;;-141.50;100.00;63355.56;5030428;28;21939;-80
2023/09/27 10:16:43;;;;;;;7.10;3.75;;;;;;;-141.50;100.00;63355.56;5027614;28;20500;-80
2023/09/27 10:19:10;;;;;;;7.47;4.00;;;;;;;-141.50;100.00;63355.56;5028682;28;20052;-81
2023/09/27 10:22:08;;;;;;;7.40;4.00;;;;;;;-141.50;100.00;63355.56;5028035;28;20067;-81
2023/09/27 10:24:41;;;;;;;6.25;4.25;;;;;;;-141.50;100.00;63355.56;5029791;28;20444;-82
2023/09/27 10:27:08;;;;;;;6.20;3.83;;;;;;;-141.50;100.00;63355.56;5031667;28;20042;-81
2023/09/27 10:29:54;;;;;;;7.60;3.97;;;;;;;-141.50;100.00;63355.56;5021843;28;20486;-78
2023/09/27 10:32:22;;;;;;;7.72;4.63;;;;;;;-141.50;100.00;63355.56;5027152;28;20717;-78
2023/09/27 10:34:51;;;;;;;5.78;3.83;;;;;;;-141.50;100.00;63355.56;5029737;28;20125;-77
2023/09/27 10:37:58;;;;;;;8.40;4.10;;;;;;;-141.50;100.00;63355.56;5027287;28;20116;-78
2023/09/27 10:40:25;;;;;;;6.82;4.50;;;;;;;-141.50;100.00;63355.56;5027076;28;21312;-78
2023/09/27 10:42:52;;;;;;;6.95;3.97;;;;;;;-141.50;100.00;63355.56;5028012;28;20200;-78
2023/09/27 10:45:19;;;;;;;8.05;3.30;;;;;;;-141.50;100.00;63355.56;5028674;28;20037;-77
2023/09/27 10:47:49;;;;;;;6.85;3.80;;;;;;;-141.50;100.00;63355.56;5028500;28;20076;-78
2023/09/27 10:50:26;;;;;;;6.30;3.58;;;;;;;-141.50;100.00;63355.56;5021372;28;20117;-77
2023/09/27 10:52:53;;;;;;;6.05;3.78;;;;;;;-141.50;100.00;63355.56;5027488;28;20313;-77
2023/09/27 10:55:20;;;;;;;7.55;4.10;;;;;;;-141.50;100.00;63355.56;5023307;28;20523;-78
2023/09/27 10:57:47;;;;;;;5.90;3.88;;;;;;;-141.50;100.00;63355.56;5011787;28;20052;-78
2023/09/27 11:00:17;;;;;;;7.03;3.42;;;;;;;-141.50;100.00;63355.56;5028371;28;20049;-78
2023/09/27 11:02:44;;;;;;;6.72;3.83;;;;;;;-141.50;100.00;63355.56;5026427;28;20053;-78
2023/09/27 11:05:11;;;;;;;7.38;3.80;;;;;;;-141.50;100.00;63355.56;5025304;28;20045;-78
2023/09/27 11:07:46;;;;;;;6.40;3.75;;;;;;;-141.50;100.00;63355.56;5028345;28;20038;-76
2023/09/27 11:10:32;;;;;;;4.95;3.65;;;;;;;-141.50;100.00;63355.56;5028003;28;20034;-78